sensor_id;sensor_type;location;lat;lon;timestamp;pressure;altitude;pressure_sealevel;temperature;humidity
64298;BME280;50639;53.270;7.956;2023-07-31T00:00:58;100646.34;;;16.53;78.16
64298;BME280;50639;53.270;7.956;2023-07-31T00:03:23;100648.19;;;16.53;78.07
64298;BME280;50639;53.270;7.956;2023-07-31T00:05:49;100650.31;;;16.57;78.00
64298;BME280;50639;53.270;7.956;2023-07-31T00:08:14;100642.53;;;16.56;77.84
64298;BME280;50639;53.270;7.956;2023-07-31T00:10:40;100638.34;;;16.61;78.23
64298;BME280;50639;53.270;7.956;2023-07-31T00:13:05;100641.69;;;16.55;77.90
64298;BME280;50639;53.270;7.956;2023-07-31T00:15:31;100640.16;;;16.61;77.81
64298;BME280;50639;53.270;7.956;2023-07-31T00:17:56;100632.19;;;16.61;78.05
64298;BME280;50639;53.270;7.956;2023-07-31T00:20:22;100633.72;;;16.55;78.50
64298;BME280;50639;53.270;7.956;2023-07-31T00:22:48;100627.41;;;16.56;77.80
64298;BME280;50639;53.270;7.956;2023-07-31T00:25:14;100630.84;;;16.65;77.07
64298;BME280;50639;53.270;7.956;2023-07-31T00:27:39;100632.84;;;16.71;77.51
64298;BME280;50639;53.270;7.956;2023-07-31T00:30:10;100634.50;;;16.64;77.35
64298;BME280;50639;53.270;7.956;2023-07-31T00:32:36;100636.16;;;16.65;77.36
64298;BME280;50639;53.270;7.956;2023-07-31T00:35:01;100629.88;;;16.58;77.45
64298;BME280;50639;53.270;7.956;2023-07-31T00:37:30;100638.00;;;16.64;76.85
64298;BME280;50639;53.270;7.956;2023-07-31T00:39:55;100632.19;;;16.69;76.98
64298;BME280;50639;53.270;7.956;2023-07-31T00:42:21;100631.53;;;16.67;76.40
64298;BME280;50639;53.270;7.956;2023-07-31T00:44:47;100631.84;;;16.64;75.91
64298;BME280;50639;53.270;7.956;2023-07-31T00:47:14;100630.38;;;16.69;75.80
64298;BME280;50639;53.270;7.956;2023-07-31T00:49:40;100626.53;;;16.64;75.87
64298;BME280;50639;53.270;7.956;2023-07-31T00:52:06;100624.56;;;16.66;75.93
64298;BME280;50639;53.270;7.956;2023-07-31T00:54:32;100623.03;;;16.71;75.35
64298;BME280;50639;53.270;7.956;2023-07-31T00:56:59;100623.38;;;16.68;75.29
64298;BME280;50639;53.270;7.956;2023-07-31T00:59:25;100621.78;;;16.51;75.76
64298;BME280;50639;53.270;7.956;2023-07-31T01:01:50;100622.75;;;16.58;75.50
64298;BME280;50639;53.270;7.956;2023-07-31T01:04:17;100617.78;;;16.55;76.04
64298;BME280;50639;53.270;7.956;2023-07-31T01:09:20;100621.78;;;16.43;76.25
64298;BME280;50639;53.270;7.956;2023-07-31T01:11:57;100604.34;;;16.40;76.78
64298;BME280;50639;53.270;7.956;2023-07-31T01:14:23;100604.66;;;16.46;76.87
64298;BME280;50639;53.270;7.956;2023-07-31T01:16:48;100603.34;;;16.41;77.31
64298;BME280;50639;53.270;7.956;2023-07-31T01:19:15;100589.63;;;16.30;77.87
64298;BME280;50639;53.270;7.956;2023-07-31T01:27:30;100585.94;;;16.39;77.37
64298;BME280;50639;53.270;7.956;2023-07-31T01:30:08;100584.91;;;16.40;77.44
64298;BME280;50639;53.270;7.956;2023-07-31T01:32:39;100580.28;;;16.34;77.85
64298;BME280;50639;53.270;7.956;2023-07-31T01:35:06;100584.47;;;16.28;78.26
64298;BME280;50639;53.270;7.956;2023-07-31T01:37:31;100583.97;;;16.17;78.65
64298;BME280;50639;53.270;7.956;2023-07-31T01:39:57;100580.19;;;16.19;78.88
64298;BME280;50639;53.270;7.956;2023-07-31T01:42:23;100578.03;;;16.23;78.97
64298;BME280;50639;53.270;7.956;2023-07-31T01:44:49;100577.84;;;16.16;79.34
64298;BME280;50639;53.270;7.956;2023-07-31T01:47:15;100575.22;;;16.08;79.88
64298;BME280;50639;53.270;7.956;2023-07-31T01:49:40;100573.03;;;16.20;79.58
64298;BME280;50639;53.270;7.956;2023-07-31T01:52:06;100572.88;;;16.13;79.49
64298;BME280;50639;53.270;7.956;2023-07-31T01:54:31;100558.09;;;16.10;79.70
64298;BME280;50639;53.270;7.956;2023-07-31T01:56:58;100559.28;;;16.08;80.09
64298;BME280;50639;53.270;7.956;2023-07-31T01:59:23;100561.75;;;16.09;80.11
64298;BME280;50639;53.270;7.956;2023-07-31T02:01:48;100563.72;;;16.16;80.16
64298;BME280;50639;53.270;7.956;2023-07-31T02:04:14;100560.75;;;16.10;80.34
64298;BME280;50639;53.270;7.956;2023-07-31T02:06:43;100559.28;;;16.08;80.96
64298;BME280;50639;53.270;7.956;2023-07-31T02:09:08;100563.44;;;16.02;81.55
64298;BME280;50639;53.270;7.956;2023-07-31T02:11:34;100562.78;;;16.00;81.62
64298;BME280;50639;53.270;7.956;2023-07-31T02:13:59;100551.16;;;16.01;81.79
64298;BME280;50639;53.270;7.956;2023-07-31T02:16:25;100555.84;;;15.91;81.75
64298;BME280;50639;53.270;7.956;2023-07-31T02:18:50;100557.97;;;15.88;82.63
64298;BME280;50639;53.270;7.956;2023-07-31T02:21:15;100551.19;;;15.85;82.78
64298;BME280;50639;53.270;7.956;2023-07-31T02:23:41;100546.72;;;15.86;82.48
64298;BME280;50639;53.270;7.956;2023-07-31T02:26:07;100540.22;;;15.88;82.84
64298;BME280;50639;53.270;7.956;2023-07-31T02:28:33;100549.69;;;15.83;82.84
64298;BME280;50639;53.270;7.956;2023-07-31T02:30:58;100542.41;;;15.85;82.96
64298;BME280;50639;53.270;7.956;2023-07-31T02:33:24;100536.44;;;15.83;82.84
64298;BME280;50639;53.270;7.956;2023-07-31T02:35:50;100538.09;;;15.84;82.98
64298;BME280;50639;53.270;7.956;2023-07-31T02:38:16;100534.09;;;15.88;83.03
64298;BME280;50639;53.270;7.956;2023-07-31T02:40:42;100535.91;;;15.87;82.67
64298;BME280;50639;53.270;7.956;2023-07-31T02:43:08;100530.44;;;15.89;82.76
64298;BME280;50639;53.270;7.956;2023-07-31T02:45:33;100526.66;;;15.91;82.96
64298;BME280;50639;53.270;7.956;2023-07-31T02:48:00;100530.94;;;15.84;83.23
64298;BME280;50639;53.270;7.956;2023-07-31T02:50:26;100534.59;;;15.83;83.59
64298;BME280;50639;53.270;7.956;2023-07-31T02:52:52;100530.13;;;15.84;83.49
64298;BME280;50639;53.270;7.956;2023-07-31T02:55:18;100534.25;;;15.86;84.06
64298;BME280;50639;53.270;7.956;2023-07-31T02:57:43;100527.28;;;15.85;83.45
64298;BME280;50639;53.270;7.956;2023-07-31T03:00:09;100520.00;;;15.87;83.78
64298;BME280;50639;53.270;7.956;2023-07-31T03:02:35;100531.44;;;15.88;83.71
64298;BME280;50639;53.270;7.956;2023-07-31T03:05:01;100523.81;;;15.93;83.54
64298;BME280;50639;53.270;7.956;2023-07-31T03:07:26;100525.94;;;15.89;83.76
64298;BME280;50639;53.270;7.956;2023-07-31T03:09:55;100522.84;;;15.69;84.38
64298;BME280;50639;53.270;7.956;2023-07-31T03:12:31;100516.03;;;15.75;84.46
64298;BME280;50639;53.270;7.956;2023-07-31T03:14:57;100512.06;;;15.79;84.48
64298;BME280;50639;53.270;7.956;2023-07-31T03:17:23;100513.84;;;15.87;84.33
64298;BME280;50639;53.270;7.956;2023-07-31T03:19:50;100512.84;;;15.88;83.99
64298;BME280;50639;53.270;7.956;2023-07-31T03:22:25;100507.88;;;15.93;83.62
64298;BME280;50639;53.270;7.956;2023-07-31T03:24:51;100511.38;;;15.93;83.87
64298;BME280;50639;53.270;7.956;2023-07-31T03:27:20;100515.34;;;15.97;83.75
64298;BME280;50639;53.270;7.956;2023-07-31T03:29:51;100519.16;;;15.95;84.04
64298;BME280;50639;53.270;7.956;2023-07-31T03:32:21;100511.84;;;15.89;84.01
64298;BME280;50639;53.270;7.956;2023-07-31T03:34:49;100516.34;;;15.80;84.82
64298;BME280;50639;53.270;7.956;2023-07-31T03:37:24;100503.09;;;15.80;84.16
64298;BME280;50639;53.270;7.956;2023-07-31T03:39:52;100512.06;;;15.79;84.21
64298;BME280;50639;53.270;7.956;2023-07-31T03:42:25;100506.88;;;15.86;84.45
64298;BME280;50639;53.270;7.956;2023-07-31T03:44:53;100505.25;;;15.76;84.59
64298;BME280;50639;53.270;7.956;2023-07-31T03:47:47;100497.28;;;15.76;84.73
64298;BME280;50639;53.270;7.956;2023-07-31T03:50:16;100491.63;;;15.79;84.79
64298;BME280;50639;53.270;7.956;2023-07-31T03:52:42;100494.44;;;15.86;84.46
64298;BME280;50639;53.270;7.956;2023-07-31T03:55:08;100493.78;;;15.84;84.22
64298;BME280;50639;53.270;7.956;2023-07-31T03:58:01;100484.81;;;15.85;84.41
64298;BME280;50639;53.270;7.956;2023-07-31T04:00:44;100490.97;;;15.77;84.97
64298;BME280;50639;53.270;7.956;2023-07-31T04:03:09;100486.00;;;15.83;84.49
64298;BME280;50639;53.270;7.956;2023-07-31T04:05:38;100496.44;;;15.84;84.84
64298;BME280;50639;53.270;7.956;2023-07-31T04:08:03;100496.25;;;15.86;84.35
64298;BME280;50639;53.270;7.956;2023-07-31T04:10:31;100500.91;;;15.84;84.52
64298;BME280;50639;53.270;7.956;2023-07-31T04:12:58;100490.81;;;15.79;85.27
64298;BME280;50639;53.270;7.956;2023-07-31T04:15:24;100483.34;;;15.83;84.50
64298;BME280;50639;53.270;7.956;2023-07-31T04:17:49;100484.00;;;15.85;84.18
64298;BME280;50639;53.270;7.956;2023-07-31T04:20:15;100481.81;;;15.88;84.39
64298;BME280;50639;53.270;7.956;2023-07-31T04:22:41;100480.81;;;15.89;84.01
64298;BME280;50639;53.270;7.956;2023-07-31T04:25:07;100483.47;;;15.89;84.21
64298;BME280;50639;53.270;7.956;2023-07-31T04:27:32;100472.72;;;15.91;84.21
64298;BME280;50639;53.270;7.956;2023-07-31T04:29:58;100481.03;;;15.79;84.94
64298;BME280;50639;53.270;7.956;2023-07-31T04:32:23;100480.50;;;15.84;84.66
64298;BME280;50639;53.270;7.956;2023-07-31T04:34:49;100480.69;;;15.91;84.01
64298;BME280;50639;53.270;7.956;2023-07-31T04:37:14;100474.38;;;15.84;84.83
64298;BME280;50639;53.270;7.956;2023-07-31T04:39:39;100485.31;;;15.89;85.28
64298;BME280;50639;53.270;7.956;2023-07-31T04:42:05;100475.03;;;15.86;85.32
64298;BME280;50639;53.270;7.956;2023-07-31T04:44:30;100470.06;;;15.91;84.70
64298;BME280;50639;53.270;7.956;2023-07-31T04:46:56;100473.38;;;15.93;84.75
64298;BME280;50639;53.270;7.956;2023-07-31T04:49:21;100472.69;;;15.99;84.50
64298;BME280;50639;53.270;7.956;2023-07-31T04:51:47;100473.16;;;16.02;84.36
64298;BME280;50639;53.270;7.956;2023-07-31T04:54:13;100470.50;;;16.02;84.56
64298;BME280;50639;53.270;7.956;2023-07-31T04:56:40;100465.38;;;16.01;84.74
64298;BME280;50639;53.270;7.956;2023-07-31T04:59:06;100472.66;;;16.07;84.32
64298;BME280;50639;53.270;7.956;2023-07-31T05:01:32;100472.13;;;16.11;84.22
64298;BME280;50639;53.270;7.956;2023-07-31T05:03:57;100470.44;;;16.19;83.60
64298;BME280;50639;53.270;7.956;2023-07-31T05:06:23;100473.09;;;16.19;84.17
64298;BME280;50639;53.270;7.956;2023-07-31T05:08:48;100466.28;;;16.16;84.25
64298;BME280;50639;53.270;7.956;2023-07-31T05:11:14;100460.97;;;16.16;83.89
64298;BME280;50639;53.270;7.956;2023-07-31T05:13:39;100454.16;;;16.22;83.72
64298;BME280;50639;53.270;7.956;2023-07-31T05:16:04;100449.16;;;16.27;83.27
64298;BME280;50639;53.270;7.956;2023-07-31T05:18:30;100452.59;;;16.35;82.96
64298;BME280;50639;53.270;7.956;2023-07-31T05:20:55;100452.94;;;16.32;83.43
64298;BME280;50639;53.270;7.956;2023-07-31T05:23:21;100459.56;;;16.36;83.05
64298;BME280;50639;53.270;7.956;2023-07-31T05:25:46;100457.09;;;16.35;83.29
64298;BME280;50639;53.270;7.956;2023-07-31T05:28:12;100456.22;;;16.42;83.22
64298;BME280;50639;53.270;7.956;2023-07-31T05:30:38;100457.91;;;16.35;83.24
64298;BME280;50639;53.270;7.956;2023-07-31T05:33:05;100459.91;;;16.33;83.44
64298;BME280;50639;53.270;7.956;2023-07-31T05:35:30;100452.13;;;16.32;83.77
64298;BME280;50639;53.270;7.956;2023-07-31T05:37:55;100466.09;;;16.26;84.10
64298;BME280;50639;53.270;7.956;2023-07-31T05:40:21;100456.38;;;16.10;84.13
64298;BME280;50639;53.270;7.956;2023-07-31T05:42:46;100456.66;;;16.23;84.00
64298;BME280;50639;53.270;7.956;2023-07-31T05:45:12;100444.03;;;16.25;83.79
64298;BME280;50639;53.270;7.956;2023-07-31T05:47:39;100449.34;;;16.25;83.90
64298;BME280;50639;53.270;7.956;2023-07-31T05:50:05;100445.38;;;16.21;83.37
64298;BME280;50639;53.270;7.956;2023-07-31T05:52:34;100450.16;;;16.26;83.15
64298;BME280;50639;53.270;7.956;2023-07-31T05:55:10;100440.25;;;16.20;82.91
64298;BME280;50639;53.270;7.956;2023-07-31T05:57:36;100434.41;;;16.16;83.51
64298;BME280;50639;53.270;7.956;2023-07-31T06:00:02;100433.56;;;16.24;82.75
64298;BME280;50639;53.270;7.956;2023-07-31T06:02:30;100433.06;;;16.28;82.54
64298;BME280;50639;53.270;7.956;2023-07-31T06:04:59;100438.31;;;16.36;82.20
64298;BME280;50639;53.270;7.956;2023-07-31T06:07:26;100429.63;;;16.42;82.49
64298;BME280;50639;53.270;7.956;2023-07-31T06:09:51;100431.63;;;16.49;82.66
64298;BME280;50639;53.270;7.956;2023-07-31T06:12:18;100421.28;;;16.54;82.48
64298;BME280;50639;53.270;7.956;2023-07-31T06:14:44;100417.38;;;16.64;82.11
64298;BME280;50639;53.270;7.956;2023-07-31T06:17:09;100421.66;;;16.73;82.41
64298;BME280;50639;53.270;7.956;2023-07-31T06:19:35;100411.66;;;16.76;82.20
64298;BME280;50639;53.270;7.956;2023-07-31T06:22:01;100407.97;;;16.85;82.10
64298;BME280;50639;53.270;7.956;2023-07-31T06:24:28;100422.38;;;16.90;82.10
64298;BME280;50639;53.270;7.956;2023-07-31T06:26:55;100419.91;;;17.03;81.60
64298;BME280;50639;53.270;7.956;2023-07-31T06:29:23;100426.03;;;17.12;81.72
64298;BME280;50639;53.270;7.956;2023-07-31T06:31:49;100423.00;;;17.15;81.87
64298;BME280;50639;53.270;7.956;2023-07-31T06:34:15;100418.50;;;17.16;81.38
64298;BME280;50639;53.270;7.956;2023-07-31T06:36:42;100417.16;;;16.97;82.36
64298;BME280;50639;53.270;7.956;2023-07-31T06:39:08;100423.94;;;16.99;82.47
64298;BME280;50639;53.270;7.956;2023-07-31T06:41:34;100425.66;;;17.15;82.02
64298;BME280;50639;53.270;7.956;2023-07-31T06:44:05;100410.91;;;17.27;81.88
64298;BME280;50639;53.270;7.956;2023-07-31T06:46:34;100412.00;;;17.18;82.05
64298;BME280;50639;53.270;7.956;2023-07-31T06:49:00;100407.50;;;17.33;82.02
64298;BME280;50639;53.270;7.956;2023-07-31T06:51:27;100404.22;;;17.46;81.35
64298;BME280;50639;53.270;7.956;2023-07-31T06:53:52;100400.84;;;17.38;82.56
64298;BME280;50639;53.270;7.956;2023-07-31T06:56:20;100399.28;;;17.43;82.47
64298;BME280;50639;53.270;7.956;2023-07-31T06:58:47;100402.69;;;17.37;81.84
64298;BME280;50639;53.270;7.956;2023-07-31T07:01:13;100393.84;;;17.22;82.73
64298;BME280;50639;53.270;7.956;2023-07-31T07:03:39;100397.41;;;17.29;82.39
64298;BME280;50639;53.270;7.956;2023-07-31T07:06:05;100390.53;;;17.20;82.38
64298;BME280;50639;53.270;7.956;2023-07-31T07:08:30;100388.31;;;17.09;82.78
64298;BME280;50639;53.270;7.956;2023-07-31T07:10:56;100390.19;;;17.00;82.98
64298;BME280;50639;53.270;7.956;2023-07-31T07:13:22;100382.88;;;17.02;83.57
64298;BME280;50639;53.270;7.956;2023-07-31T07:15:48;100378.88;;;17.21;82.53
64298;BME280;50639;53.270;7.956;2023-07-31T07:18:14;100376.69;;;17.24;82.69
64298;BME280;50639;53.270;7.956;2023-07-31T07:20:39;100386.03;;;17.20;82.93
64298;BME280;50639;53.270;7.956;2023-07-31T07:23:05;100378.59;;;17.16;83.35
64298;BME280;50639;53.270;7.956;2023-07-31T07:25:31;100375.84;;;17.09;83.30
64298;BME280;50639;53.270;7.956;2023-07-31T07:27:56;100372.09;;;17.18;83.29
64298;BME280;50639;53.270;7.956;2023-07-31T07:30:22;100367.59;;;17.33;82.93
64298;BME280;50639;53.270;7.956;2023-07-31T07:32:48;100363.66;;;17.44;82.86
64298;BME280;50639;53.270;7.956;2023-07-31T07:35:14;100362.75;;;17.52;82.46
64298;BME280;50639;53.270;7.956;2023-07-31T07:37:40;100363.84;;;17.57;81.89
64298;BME280;50639;53.270;7.956;2023-07-31T07:40:06;100361.78;;;17.68;81.94
64298;BME280;50639;53.270;7.956;2023-07-31T07:42:31;100369.09;;;17.65;81.77
64298;BME280;50639;53.270;7.956;2023-07-31T07:44:59;100362.41;;;17.70;81.78
64298;BME280;50639;53.270;7.956;2023-07-31T07:47:25;100354.06;;;17.73;81.94
64298;BME280;50639;53.270;7.956;2023-07-31T07:49:50;100352.84;;;17.75;81.92
64298;BME280;50639;53.270;7.956;2023-07-31T07:52:16;100360.72;;;17.83;81.88
64298;BME280;50639;53.270;7.956;2023-07-31T07:54:41;100354.94;;;17.80;81.79
64298;BME280;50639;53.270;7.956;2023-07-31T07:57:06;100350.75;;;17.71;82.19
64298;BME280;50639;53.270;7.956;2023-07-31T07:59:32;100341.81;;;17.78;82.20
64298;BME280;50639;53.270;7.956;2023-07-31T08:01:57;100345.31;;;17.93;82.06
64298;BME280;50639;53.270;7.956;2023-07-31T08:04:23;100344.75;;;17.98;82.03
64298;BME280;50639;53.270;7.956;2023-07-31T08:06:51;100336.38;;;18.01;81.83
64298;BME280;50639;53.270;7.956;2023-07-31T08:09:17;100332.06;;;18.00;82.29
64298;BME280;50639;53.270;7.956;2023-07-31T08:11:42;100331.03;;;18.01;82.42
64298;BME280;50639;53.270;7.956;2023-07-31T08:14:08;100331.94;;;18.08;82.42
64298;BME280;50639;53.270;7.956;2023-07-31T08:16:33;100326.81;;;17.92;81.84
64298;BME280;50639;53.270;7.956;2023-07-31T08:18:59;100325.78;;;18.08;81.82
64298;BME280;50639;53.270;7.956;2023-07-31T08:21:25;100321.66;;;18.05;82.30
64298;BME280;50639;53.270;7.956;2023-07-31T08:23:50;100324.44;;;17.97;81.56
64298;BME280;50639;53.270;7.956;2023-07-31T08:26:17;100318.09;;;17.98;81.88
64298;BME280;50639;53.270;7.956;2023-07-31T08:28:43;100322.16;;;17.94;81.75
64298;BME280;50639;53.270;7.956;2023-07-31T08:31:10;100319.59;;;17.86;82.10
64298;BME280;50639;53.270;7.956;2023-07-31T08:33:36;100314.38;;;17.78;82.38
64298;BME280;50639;53.270;7.956;2023-07-31T08:36:02;100323.31;;;17.70;82.70
64298;BME280;50639;53.270;7.956;2023-07-31T08:38:31;100315.13;;;17.72;82.59
64298;BME280;50639;53.270;7.956;2023-07-31T08:40:57;100314.31;;;17.71;82.29
64298;BME280;50639;53.270;7.956;2023-07-31T08:43:25;100313.38;;;17.79;82.05
64298;BME280;50639;53.270;7.956;2023-07-31T08:45:51;100308.66;;;17.81;81.95
64298;BME280;50639;53.270;7.956;2023-07-31T08:48:17;100318.50;;;17.80;81.91
64298;BME280;50639;53.270;7.956;2023-07-31T08:50:44;100308.03;;;17.79;81.87
64298;BME280;50639;53.270;7.956;2023-07-31T08:53:10;100311.53;;;17.79;82.23
64298;BME280;50639;53.270;7.956;2023-07-31T08:55:38;100313.06;;;17.88;81.78
64298;BME280;50639;53.270;7.956;2023-07-31T08:58:04;100315.47;;;17.83;80.99
64298;BME280;50639;53.270;7.956;2023-07-31T09:00:32;100308.84;;;17.79;81.43
64298;BME280;50639;53.270;7.956;2023-07-31T09:03:01;100309.13;;;17.84;81.29
64298;BME280;50639;53.270;7.956;2023-07-31T09:05:29;100311.00;;;17.69;81.75
64298;BME280;50639;53.270;7.956;2023-07-31T09:07:55;100311.34;;;17.81;81.44
64298;BME280;50639;53.270;7.956;2023-07-31T09:10:23;100302.03;;;17.91;81.26
64298;BME280;50639;53.270;7.956;2023-07-31T09:12:51;100306.28;;;17.86;81.61
64298;BME280;50639;53.270;7.956;2023-07-31T09:15:17;100300.66;;;17.95;81.95
64298;BME280;50639;53.270;7.956;2023-07-31T09:17:43;100293.13;;;17.99;82.49
64298;BME280;50639;53.270;7.956;2023-07-31T09:20:20;100290.00;;;18.17;81.18
64298;BME280;50639;53.270;7.956;2023-07-31T09:22:46;100284.63;;;18.10;81.67
64298;BME280;50639;53.270;7.956;2023-07-31T09:28:06;100278.28;;;18.33;80.62
64298;BME280;50639;53.270;7.956;2023-07-31T09:30:45;100279.97;;;18.40;81.07
64298;BME280;50639;53.270;7.956;2023-07-31T09:33:10;100277.94;;;18.42;80.77
64298;BME280;50639;53.270;7.956;2023-07-31T09:35:36;100277.81;;;18.50;80.29
64298;BME280;50639;53.270;7.956;2023-07-31T09:38:05;100262.28;;;18.33;80.50
64298;BME280;50639;53.270;7.956;2023-07-31T09:40:33;100271.97;;;18.40;80.58
64298;BME280;50639;53.270;7.956;2023-07-31T09:43:03;100278.47;;;18.31;81.09
64298;BME280;50639;53.270;7.956;2023-07-31T09:45:29;100266.31;;;18.22;80.57
64298;BME280;50639;53.270;7.956;2023-07-31T09:47:56;100262.63;;;18.23;80.58
64298;BME280;50639;53.270;7.956;2023-07-31T09:50:24;100262.97;;;18.20;80.57
64298;BME280;50639;53.270;7.956;2023-07-31T09:52:51;100264.19;;;18.17;80.64
64298;BME280;50639;53.270;7.956;2023-07-31T09:55:18;100259.44;;;18.13;80.87
64298;BME280;50639;53.270;7.956;2023-07-31T09:57:46;100250.22;;;18.15;80.81
64298;BME280;50639;53.270;7.956;2023-07-31T10:00:13;100250.13;;;18.23;80.90
64298;BME280;50639;53.270;7.956;2023-07-31T10:02:41;100252.66;;;18.32;80.50
64298;BME280;50639;53.270;7.956;2023-07-31T10:05:13;100236.69;;;18.38;80.52
64298;BME280;50639;53.270;7.956;2023-07-31T10:07:42;100246.72;;;18.36;81.00
64298;BME280;50639;53.270;7.956;2023-07-31T10:10:08;100234.09;;;18.45;80.72
64298;BME280;50639;53.270;7.956;2023-07-31T10:12:35;100240.19;;;18.39;81.05
64298;BME280;50639;53.270;7.956;2023-07-31T10:15:02;100234.78;;;18.53;80.44
64298;BME280;50639;53.270;7.956;2023-07-31T10:17:29;100239.72;;;18.56;80.88
64298;BME280;50639;53.270;7.956;2023-07-31T10:19:54;100235.25;;;18.36;82.14
64298;BME280;50639;53.270;7.956;2023-07-31T10:22:21;100241.22;;;18.38;82.18
64298;BME280;50639;53.270;7.956;2023-07-31T10:24:48;100233.34;;;18.51;81.13
64298;BME280;50639;53.270;7.956;2023-07-31T10:27:14;100227.41;;;18.55;81.11
64298;BME280;50639;53.270;7.956;2023-07-31T10:29:43;100228.81;;;18.51;81.49
64298;BME280;50639;53.270;7.956;2023-07-31T10:32:12;100222.50;;;18.59;81.02
64298;BME280;50639;53.270;7.956;2023-07-31T10:34:39;100215.94;;;18.55;80.21
64298;BME280;50639;53.270;7.956;2023-07-31T10:37:25;100214.31;;;18.61;80.70
64298;BME280;50639;53.270;7.956;2023-07-31T10:40:02;100217.19;;;18.59;80.71
64298;BME280;50639;53.270;7.956;2023-07-31T10:42:36;100213.59;;;18.73;80.44
64298;BME280;50639;53.270;7.956;2023-07-31T10:45:04;100202.81;;;18.81;80.18
64298;BME280;50639;53.270;7.956;2023-07-31T10:47:31;100212.16;;;18.71;80.23
64298;BME280;50639;53.270;7.956;2023-07-31T10:50:16;100198.53;;;18.59;80.85
64298;BME280;50639;53.270;7.956;2023-07-31T10:52:51;100206.72;;;18.57;80.87
64298;BME280;50639;53.270;7.956;2023-07-31T10:58:12;100197.28;;;18.83;80.60
64298;BME280;50639;53.270;7.956;2023-07-31T11:03:10;100201.47;;;19.05;80.15
64298;BME280;50639;53.270;7.956;2023-07-31T11:05:52;100204.81;;;19.14;79.95
64298;BME280;50639;53.270;7.956;2023-07-31T11:08:25;100194.91;;;19.08;79.01
64298;BME280;50639;53.270;7.956;2023-07-31T11:11:08;100192.69;;;19.11;78.80
64298;BME280;50639;53.270;7.956;2023-07-31T11:16:15;100191.34;;;19.35;78.94
64298;BME280;50639;53.270;7.956;2023-07-31T11:18:43;100187.00;;;19.28;78.98
64298;BME280;50639;53.270;7.956;2023-07-31T11:21:12;100187.88;;;19.41;79.22
64298;BME280;50639;53.270;7.956;2023-07-31T11:23:38;100192.97;;;19.36;79.62
64298;BME280;50639;53.270;7.956;2023-07-31T11:26:06;100179.72;;;19.56;79.66
64298;BME280;50639;53.270;7.956;2023-07-31T11:28:33;100188.41;;;19.78;78.26
64298;BME280;50639;53.270;7.956;2023-07-31T11:30:59;100181.63;;;19.89;78.15
64298;BME280;50639;53.270;7.956;2023-07-31T11:33:25;100185.75;;;20.18;78.37
64298;BME280;50639;53.270;7.956;2023-07-31T11:35:51;100203.03;;;20.22;78.28
64298;BME280;50639;53.270;7.956;2023-07-31T11:38:28;100191.31;;;20.09;78.33
64298;BME280;50639;53.270;7.956;2023-07-31T11:40:57;100188.25;;;19.99;78.18
64298;BME280;50639;53.270;7.956;2023-07-31T11:43:23;100176.94;;;19.97;78.25
64298;BME280;50639;53.270;7.956;2023-07-31T11:45:51;100173.00;;;19.93;77.80
64298;BME280;50639;53.270;7.956;2023-07-31T11:48:27;100178.78;;;19.97;78.24
64298;BME280;50639;53.270;7.956;2023-07-31T11:51:01;100174.06;;;20.12;78.12
64298;BME280;50639;53.270;7.956;2023-07-31T11:56:13;100168.28;;;20.15;78.15
64298;BME280;50639;53.270;7.956;2023-07-31T11:58:40;100168.09;;;20.17;77.46
64298;BME280;50639;53.270;7.956;2023-07-31T12:01:09;100165.63;;;20.08;77.66
64298;BME280;50639;53.270;7.956;2023-07-31T12:03:34;100166.25;;;20.04;78.75
64298;BME280;50639;53.270;7.956;2023-07-31T12:06:00;100163.38;;;19.99;79.53
64298;BME280;50639;53.270;7.956;2023-07-31T12:08:26;100161.91;;;19.76;79.56
64298;BME280;50639;53.270;7.956;2023-07-31T12:10:53;100164.38;;;19.78;79.42
64298;BME280;50639;53.270;7.956;2023-07-31T12:13:24;100152.66;;;19.72;80.08
64298;BME280;50639;53.270;7.956;2023-07-31T12:15:54;100145.88;;;19.83;79.64
64298;BME280;50639;53.270;7.956;2023-07-31T12:18:22;100158.63;;;19.94;79.37
64298;BME280;50639;53.270;7.956;2023-07-31T12:20:53;100156.34;;;19.91;79.68
64298;BME280;50639;53.270;7.956;2023-07-31T12:23:22;100151.22;;;20.16;79.52
64298;BME280;50639;53.270;7.956;2023-07-31T12:28:54;100142.19;;;20.10;78.98
64298;BME280;50639;53.270;7.956;2023-07-31T12:31:21;100143.00;;;20.11;79.60
64298;BME280;50639;53.270;7.956;2023-07-31T12:33:48;100145.28;;;20.07;79.58
64298;BME280;50639;53.270;7.956;2023-07-31T12:36:21;100139.50;;;20.17;79.14
64298;BME280;50639;53.270;7.956;2023-07-31T12:38:48;100133.75;;;20.14;79.69
64298;BME280;50639;53.270;7.956;2023-07-31T12:41:14;100138.50;;;19.98;79.78
64298;BME280;50639;53.270;7.956;2023-07-31T12:43:41;100125.31;;;19.90;80.47
64298;BME280;50639;53.270;7.956;2023-07-31T12:46:07;100130.06;;;19.88;80.12
64298;BME280;50639;53.270;7.956;2023-07-31T12:48:33;100138.06;;;19.82;80.59
64298;BME280;50639;53.270;7.956;2023-07-31T12:51:01;100143.63;;;19.80;80.79
64298;BME280;50639;53.270;7.956;2023-07-31T12:53:27;100132.53;;;19.76;81.33
64298;BME280;50639;53.270;7.956;2023-07-31T12:55:52;100135.81;;;19.78;81.49
64298;BME280;50639;53.270;7.956;2023-07-31T12:58:18;100128.00;;;19.70;81.59
64298;BME280;50639;53.270;7.956;2023-07-31T13:00:43;100121.84;;;19.76;81.35
64298;BME280;50639;53.270;7.956;2023-07-31T13:03:11;100129.03;;;19.83;81.42
64298;BME280;50639;53.270;7.956;2023-07-31T13:05:38;100127.38;;;19.75;81.37
64298;BME280;50639;53.270;7.956;2023-07-31T13:08:06;100122.03;;;19.75;81.34
64298;BME280;50639;53.270;7.956;2023-07-31T13:10:32;100123.06;;;19.87;81.18
64298;BME280;50639;53.270;7.956;2023-07-31T13:12:58;100121.84;;;20.03;80.95
64298;BME280;50639;53.270;7.956;2023-07-31T13:15:24;100123.28;;;20.25;79.64